Time;durP1;ratioP1;P1;durP2;ratioP2;P2;SDS_P1;SDS_P2;PMS_P1;PMS_P2;Temp;Humidity;BMP_temperature;BMP_pressure;BME280_temperature;BME280_humidity;BME280_pressure;Samples;Min_cycle;Max_cycle;Signal;HPM_P1;HPM_P2
2021/12/05 00:21:51;;;;;;;17.88;3.00;;;8.10;99.90;;;;;;5067000;28;20415;-71
2021/12/05 00:24:22;;;;;;;18.27;3.08;;;8.10;99.90;;;;;;5073828;28;20407;-69
2021/12/05 00:26:56;;;;;;;15.15;3.00;;;8.10;99.90;;;;;;5066152;28;20520;-71
2021/12/05 00:29:33;;;;;;;10.77;2.50;;;8.00;99.90;;;;;;5078107;28;20407;-72
2021/12/05 01:15:16;;;;;;;6.28;3.20;;;7.00;99.90;;;;;;5066196;28;20426;-69
2021/12/05 01:20:26;;;;;;;5.43;2.70;;;7.00;99.90;;;;;;5067147;28;20402;-69
2021/12/05 01:23:01;;;;;;;6.28;2.60;;;6.90;99.90;;;;;;5108112;27;20410;-71
2021/12/05 01:31:00;;;;;;;14.27;3.70;;;6.90;99.90;;;;;;5066199;28;20396;-72
2021/12/05 01:33:38;;;;;;;9.25;3.72;;;6.90;99.90;;;;;;5065008;28;20454;-72
2021/12/05 01:36:14;;;;;;;8.65;3.60;;;6.90;99.90;;;;;;5067250;28;20408;-70
2021/12/05 01:41:38;;;;;;;9.02;4.15;;;6.90;99.90;;;;;;5045356;28;20484;-72
2021/12/05 01:51:55;;;;;;;14.95;6.45;;;6.90;99.90;;;;;;5039764;28;20816;-73
2021/12/05 01:54:40;;;;;;;16.25;6.50;;;6.90;99.90;;;;;;5046369;28;20511;-72
2021/12/05 01:57:30;;;;;;;17.00;6.90;;;6.80;99.90;;;;;;5024909;28;20424;-71
2021/12/05 02:10:51;;;;;;;18.83;7.90;;;6.70;99.90;;;;;;5044763;28;20445;-71
2021/12/05 02:16:24;;;;;;;20.98;8.85;;;6.70;99.90;;;;;;5038062;28;21051;-71
2021/12/05 02:43:30;;;;;;;26.08;13.02;;;6.70;99.90;;;;;;5042135;28;20416;-71
2021/12/05 02:46:00;;;;;;;26.65;12.75;;;6.70;99.90;;;;;;5061928;28;20407;-73
2021/12/05 02:48:28;;;;;;;23.45;11.43;;;6.70;99.90;;;;;;5037145;28;20744;-72
2021/12/05 02:50:58;;;;;;;24.73;10.40;;;6.70;99.90;;;;;;5042020;28;20414;-74
2021/12/05 02:56:00;;;;;;;17.15;8.10;;;6.60;99.90;;;;;;5044992;28;21046;-73
2021/12/05 02:58:39;;;;;;;17.90;7.90;;;6.60;99.90;;;;;;5047688;28;20933;-72
2021/12/05 03:03:37;;;;;;;18.90;8.83;;;6.50;99.90;;;;;;5043755;28;20412;-72
2021/12/05 03:06:19;;;;;;;16.80;8.35;;;6.50;99.90;;;;;;5049985;28;21022;-73
2021/12/05 03:08:48;;;;;;;17.10;9.10;;;6.50;99.90;;;;;;5049510;28;20452;-75
2021/12/05 03:11:15;;;;;;;19.87;9.43;;;6.50;99.90;;;;;;5045609;28;20418;-71
2021/12/05 03:13:41;;;;;;;23.80;8.90;;;6.50;99.90;;;;;;5066876;28;20394;-71
2021/12/05 03:16:10;;;;;;;18.93;9.10;;;6.60;99.90;;;;;;5050522;28;20409;-72
2021/12/05 03:18:36;;;;;;;21.25;8.88;;;6.60;99.90;;;;;;5045431;28;20996;-72
2021/12/05 03:21:04;;;;;;;22.73;9.60;;;6.60;99.90;;;;;;5046202;28;20491;-72
2021/12/05 03:23:39;;;;;;;22.92;9.85;;;6.60;99.90;;;;;;5042186;28;20419;-72
2021/12/05 03:26:07;;;;;;;20.17;9.02;;;6.60;99.90;;;;;;5081421;28;20940;-74
2021/12/05 03:28:35;;;;;;;21.02;9.40;;;6.60;99.90;;;;;;5044953;28;20418;-72
2021/12/05 03:31:02;;;;;;;22.63;9.82;;;6.60;99.90;;;;;;5066684;28;20415;-72
2021/12/05 03:33:28;;;;;;;17.57;9.60;;;6.50;99.90;;;;;;5029053;28;21315;-71
2021/12/05 03:35:55;;;;;;;15.90;8.82;;;6.50;99.90;;;;;;5068295;28;20395;-71
2021/12/05 03:38:22;;;;;;;15.43;8.50;;;6.50;99.90;;;;;;5046186;28;20587;-73
2021/12/05 03:40:48;;;;;;;14.32;8.23;;;6.40;99.90;;;;;;5079614;28;21274;-71
2021/12/05 03:43:18;;;;;;;14.20;8.00;;;6.40;99.90;;;;;;5069967;28;20410;-73
2021/12/05 03:45:49;;;;;;;12.20;8.33;;;6.40;99.90;;;;;;5074448;28;20394;-71
2021/12/05 03:48:16;;;;;;;13.27;8.35;;;6.40;99.90;;;;;;5070155;28;20430;-73
2021/12/05 03:50:43;;;;;;;12.83;8.50;;;6.30;99.90;;;;;;5073899;28;20484;-72
2021/12/05 03:53:12;;;;;;;16.67;8.25;;;6.30;99.90;;;;;;5071429;28;20781;-73
2021/12/05 03:55:39;;;;;;;15.33;8.40;;;6.30;99.90;;;;;;5055107;28;20493;-74
2021/12/05 03:58:05;;;;;;;13.98;8.15;;;6.30;99.90;;;;;;5067789;28;20964;-71
2021/12/05 04:00:35;;;;;;;14.77;8.60;;;6.30;99.90;;;;;;5080222;28;20996;-74
2021/12/05 04:03:04;;;;;;;14.65;8.43;;;6.30;99.90;;;;;;5071824;28;20442;-72
2021/12/05 04:05:31;;;;;;;11.80;8.13;;;6.30;99.90;;;;;;5076618;28;20546;-72
2021/12/05 04:07:58;;;;;;;14.30;8.13;;;6.30;99.90;;;;;;5072934;28;20415;-72
2021/12/05 04:10:27;;;;;;;13.90;8.23;;;6.30;99.90;;;;;;5082381;28;20753;-72
2021/12/05 04:12:55;;;;;;;14.65;8.52;;;6.20;99.90;;;;;;5066758;28;20457;-73
2021/12/05 04:15:21;;;;;;;15.30;9.13;;;6.20;99.90;;;;;;5075941;28;20414;-72
2021/12/05 04:17:50;;;;;;;16.53;9.10;;;6.20;99.90;;;;;;5065249;28;20889;-70
2021/12/05 04:20:17;;;;;;;15.93;8.90;;;6.20;99.90;;;;;;5066900;28;20408;-72
2021/12/05 04:22:45;;;;;;;14.43;8.95;;;6.20;99.90;;;;;;5068362;28;20458;-72
2021/12/05 04:25:14;;;;;;;13.60;8.98;;;6.20;99.90;;;;;;5067384;28;20395;-71
2021/12/05 04:27:43;;;;;;;15.57;8.93;;;6.30;99.90;;;;;;5065018;28;20423;-70
2021/12/05 04:30:12;;;;;;;17.73;9.90;;;6.30;99.90;;;;;;5065981;28;20403;-73
2021/12/05 04:32:39;;;;;;;14.48;8.77;;;6.30;99.90;;;;;;5064712;28;20486;-73
2021/12/05 04:35:05;;;;;;;13.70;8.47;;;6.30;99.90;;;;;;5066456;28;20605;-72
2021/12/05 04:37:31;;;;;;;11.48;6.85;;;6.30;99.90;;;;;;5063919;28;20409;-72
2021/12/05 04:39:57;;;;;;;8.40;5.82;;;6.30;99.90;;;;;;5066726;28;20433;-72
2021/12/05 04:42:23;;;;;;;7.68;5.10;;;6.30;99.90;;;;;;5067174;28;20515;-73
2021/12/05 04:44:50;;;;;;;9.70;4.90;;;6.30;99.90;;;;;;5050056;28;21170;-73
2021/12/05 04:47:17;;;;;;;8.80;4.90;;;6.20;99.90;;;;;;5068143;28;20467;-73
2021/12/05 04:49:43;;;;;;;7.90;4.50;;;6.20;99.90;;;;;;5066064;28;20419;-72
2021/12/05 04:52:11;;;;;;;10.68;4.10;;;6.20;99.90;;;;;;5065409;28;20430;-73
2021/12/05 04:54:38;;;;;;;7.60;4.00;;;6.30;99.90;;;;;;5064186;28;20419;-72
2021/12/05 04:57:04;;;;;;;9.95;4.22;;;6.20;99.90;;;;;;5064519;28;20420;-73
2021/12/05 04:59:36;;;;;;;9.38;4.47;;;6.30;99.90;;;;;;5079468;28;20748;-73
2021/12/05 05:02:06;;;;;;;7.72;5.07;;;6.20;99.90;;;;;;5065073;28;20415;-72
2021/12/05 05:04:39;;;;;;;8.25;5.47;;;6.20;99.90;;;;;;5065844;28;20419;-71
2021/12/05 05:07:14;;;;;;;7.95;5.32;;;6.20;99.90;;;;;;5072576;28;20489;-72
2021/12/05 05:09:40;;;;;;;11.27;6.53;;;6.20;99.90;;;;;;5066677;28;20412;-71
2021/12/05 05:12:06;;;;;;;10.73;6.22;;;6.20;99.90;;;;;;5066507;28;20415;-72
2021/12/05 05:14:32;;;;;;;9.35;6.03;;;6.20;99.90;;;;;;5064120;28;20399;-70
2021/12/05 05:16:58;;;;;;;9.67;6.03;;;6.20;99.90;;;;;;5068084;28;20928;-72
2021/12/05 05:19:32;;;;;;;9.20;6.20;;;6.20;99.90;;;;;;5066247;28;20415;-71
2021/12/05 05:50:39;;;;;;;9.70;7.20;;;6.10;99.90;;;;;;5046893;28;20408;-72
2021/12/05 05:53:05;;;;;;;10.40;6.90;;;6.10;99.90;;;;;;5061192;28;20419;-74
2021/12/05 05:55:32;;;;;;;8.25;5.95;;;6.10;99.90;;;;;;5064367;28;20193;-72
2021/12/05 05:58:07;;;;;;;10.07;7.20;;;5.70;99.90;;;;;;5061216;28;20423;-72
2021/12/05 06:00:39;;;;;;;10.90;7.83;;;5.80;99.90;;;;;;5064283;28;20491;-71
2021/12/05 06:05:45;;;;;;;13.57;8.98;;;6.00;99.90;;;;;;5046169;28;20418;-71
2021/12/05 06:08:11;;;;;;;11.77;8.38;;;6.00;99.90;;;;;;5059878;28;20415;-74
2021/12/05 06:10:37;;;;;;;11.65;8.95;;;6.10;99.90;;;;;;5039121;28;20426;-73
2021/12/05 06:13:02;;;;;;;12.53;9.13;;;6.10;99.90;;;;;;5057201;28;20417;-71
2021/12/05 06:15:29;;;;;;;12.75;9.30;;;6.10;99.90;;;;;;5041161;28;20422;-73
2021/12/05 06:17:57;;;;;;;13.45;9.30;;;6.20;99.90;;;;;;5073459;28;20406;-70
2021/12/05 06:20:26;;;;;;;13.35;9.32;;;6.20;99.90;;;;;;5057166;28;20415;-73
2021/12/05 06:22:53;;;;;;;11.65;8.80;;;6.20;99.90;;;;;;5058132;28;20502;-73
2021/12/05 06:25:23;;;;;;;12.05;8.85;;;6.30;99.90;;;;;;5061298;28;20436;-74
2021/12/05 06:27:51;;;;;;;12.10;8.63;;;6.30;99.90;;;;;;5027171;28;20502;-75
2021/12/05 06:30:32;;;;;;;11.97;8.90;;;6.30;99.90;;;;;;5053431;28;20406;-72
2021/12/05 06:46:17;;;;;;;12.52;8.48;;;6.30;99.90;;;;;;5045715;28;20498;-73
2021/12/05 06:48:43;;;;;;;12.55;8.40;;;6.30;99.90;;;;;;5039328;28;20403;-76
2021/12/05 06:51:14;;;;;;;11.85;8.52;;;6.30;99.90;;;;;;5046148;28;20432;-73
2021/12/05 06:53:40;;;;;;;11.05;8.50;;;6.30;99.90;;;;;;5046502;28;20409;-76
2021/12/05 06:56:07;;;;;;;13.30;8.65;;;6.40;99.90;;;;;;5045069;28;20494;-73
2021/12/05 06:58:34;;;;;;;13.47;8.63;;;6.40;99.90;;;;;;5027397;28;20464;-72
2021/12/05 07:01:02;;;;;;;14.90;8.95;;;6.40;99.90;;;;;;5027824;28;20413;-73
2021/12/05 07:03:28;;;;;;;13.05;8.95;;;6.40;99.90;;;;;;5045891;28;20864;-75
2021/12/05 07:05:59;;;;;;;11.93;8.67;;;6.40;99.90;;;;;;5028300;28;20409;-74
2021/12/05 07:08:29;;;;;;;13.17;9.67;;;6.50;99.90;;;;;;5045827;28;20815;-74
2021/12/05 07:11:08;;;;;;;13.60;8.97;;;6.40;99.90;;;;;;5045339;28;20487;-72
2021/12/05 07:16:29;;;;;;;16.77;9.95;;;6.50;99.90;;;;;;5049732;28;20421;-75
2021/12/05 07:19:12;;;;;;;18.77;11.20;;;6.50;99.90;;;;;;5049614;28;20447;-72
2021/12/05 07:26:47;;;;;;;20.98;12.40;;;6.50;99.90;;;;;;5049066;28;20417;-73
2021/12/05 07:40:27;;;;;;;23.97;14.27;;;6.50;99.90;;;;;;5061178;28;20750;-74
2021/12/05 07:42:56;;;;;;;22.93;15.00;;;6.50;99.90;;;;;;5069598;28;20415;-73
2021/12/05 07:45:29;;;;;;;26.08;15.65;;;6.50;99.90;;;;;;5069040;28;20407;-73
2021/12/05 07:47:56;;;;;;;23.55;15.13;;;6.40;99.90;;;;;;5068548;28;20418;-71
2021/12/05 07:50:34;;;;;;;24.75;15.45;;;6.40;99.90;;;;;;5068977;28;20412;-74
2021/12/05 07:53:07;;;;;;;25.67;16.17;;;6.40;99.90;;;;;;5067338;28;20493;-74
2021/12/05 07:55:39;;;;;;;25.02;15.32;;;6.40;99.90;;;;;;5066978;28;20552;-72
2021/12/05 08:01:00;;;;;;;24.58;14.95;;;6.40;99.90;;;;;;5067784;28;20430;-72
2021/12/05 08:14:41;;;;;;;24.45;15.50;;;6.40;99.90;;;;;;5068124;28;20434;-74
2021/12/05 08:17:14;;;;;;;26.33;16.07;;;6.40;99.90;;;;;;5068415;28;20427;-73
2021/12/05 08:19:40;;;;;;;26.15;16.52;;;6.40;99.90;;;;;;5068734;28;20466;-73
2021/12/05 08:22:06;;;;;;;27.27;17.55;;;6.50;99.90;;;;;;5068122;28;20447;-71
2021/12/05 08:24:33;;;;;;;24.03;15.87;;;6.50;99.90;;;;;;5073466;28;20763;-75
2021/12/05 08:27:00;;;;;;;25.02;16.67;;;6.60;99.90;;;;;;5076492;28;20403;-73
2021/12/05 08:29:34;;;;;;;23.67;15.73;;;6.60;99.90;;;;;;5080141;28;20395;-75
2021/12/05 08:32:15;;;;;;;22.93;15.37;;;6.60;99.90;;;;;;5083381;28;20402;-72
2021/12/05 08:43:33;;;;;;;23.77;15.77;;;6.60;99.90;;;;;;5030304;28;20428;-72
2021/12/05 09:24:06;;;;;;;21.20;14.90;;;7.20;99.90;;;;;;5063541;28;20764;-71
2021/12/05 09:29:29;;;;;;;20.90;14.35;;;7.20;99.90;;;;;;5049594;28;20416;-72
2021/12/05 09:40:27;;;;;;;21.27;14.27;;;7.30;99.90;;;;;;5068313;28;20501;-71
2021/12/05 09:51:26;;;;;;;;;;;;;;;;;;;;;
2021/12/05 10:15:20;;;;;;;19.27;14.30;;;7.60;99.90;;;;;;5067592;28;20758;-70
2021/12/05 10:27:14;;;;;;;18.80;12.73;;;8.20;99.90;;;;;;5065806;28;20415;-71
2021/12/05 10:38:08;;;;;;;14.00;10.65;;;8.90;99.90;;;;;;5068183;28;20829;-70
2021/12/05 10:41:02;;;;;;;18.90;10.70;;;8.50;99.90;;;;;;5069284;28;20263;-69
2021/12/05 10:43:30;;;;;;;16.98;10.60;;;8.10;99.90;;;;;;5042412;28;20202;-71
2021/12/05 10:46:09;;;;;;;16.38;11.07;;;7.80;99.90;;;;;;5042802;28;20573;-69
2021/12/05 10:48:42;;;;;;;16.05;10.30;;;7.70;99.90;;;;;;5047541;28;20190;-71
2021/12/05 10:51:11;;;;;;;16.02;11.55;;;7.60;99.90;;;;;;5064809;28;20869;-70
2021/12/05 10:53:47;;;;;;;20.40;10.93;;;7.50;99.90;;;;;;5061924;28;20195;-70
2021/12/05 10:56:26;;;;;;;14.63;9.88;;;7.60;99.90;;;;;;5062722;28;20217;-70
2021/12/05 10:59:07;;;;;;;13.85;10.18;;;7.60;99.90;;;;;;5066243;28;20190;-71
2021/12/05 11:01:40;;;;;;;15.52;9.85;;;7.60;99.90;;;;;;5063667;28;20212;-70
2021/12/05 11:04:17;;;;;;;16.75;9.93;;;7.60;99.90;;;;;;5068661;28;20615;-71
2021/12/05 11:06:52;;;;;;;13.88;9.30;;;7.70;99.90;;;;;;5064995;28;20516;-72
2021/12/05 11:09:34;;;;;;;14.32;8.88;;;7.70;99.90;;;;;;5050235;28;20185;-71
2021/12/05 11:12:08;;;;;;;13.68;8.63;;;7.80;99.90;;;;;;5063386;28;20190;-72
2021/12/05 11:14:52;;;;;;;14.45;8.70;;;7.80;99.90;;;;;;5070237;28;20193;-70
2021/12/05 11:17:25;;;;;;;12.38;8.57;;;7.80;99.90;;;;;;5061589;28;20687;-70
2021/12/05 11:20:28;;;;;;;13.20;8.98;;;7.80;99.90;;;;;;5064461;28;20653;-71
2021/12/05 11:22:54;;;;;;;14.82;9.65;;;7.80;99.90;;;;;;5064007;28;20823;-69
2021/12/05 11:25:27;;;;;;;16.15;10.50;;;7.70;99.90;;;;;;5069133;28;20179;-72
2021/12/05 11:27:58;;;;;;;16.63;10.15;;;7.70;99.90;;;;;;5063360;28;20190;-71
2021/12/05 11:30:30;;;;;;;15.98;11.00;;;7.60;99.90;;;;;;5070904;28;20195;-70
2021/12/05 11:33:07;;;;;;;16.60;10.75;;;7.60;99.90;;;;;;5064143;28;20193;-69
2021/12/05 11:35:34;;;;;;;15.05;10.40;;;7.50;99.90;;;;;;5070652;28;20190;-69
2021/12/05 11:38:16;;;;;;;15.63;10.60;;;7.40;99.90;;;;;;5048497;28;20178;-69
2021/12/05 11:41:22;;;;;;;16.38;11.02;;;7.40;99.90;;;;;;5070495;28;20253;-69
2021/12/05 11:43:58;;;;;;;22.92;13.55;;;7.40;99.90;;;;;;5048038;28;20219;-70
2021/12/05 11:46:34;;;;;;;19.20;13.70;;;7.30;99.90;;;;;;5030596;28;20312;-71
2021/12/05 11:49:13;;;;;;;20.02;12.82;;;7.30;99.90;;;;;;5069289;28;20194;-71
2021/12/05 11:51:52;;;;;;;24.33;15.02;;;7.30;99.90;;;;;;5076025;28;20186;-72
2021/12/05 11:54:25;;;;;;;22.70;14.43;;;7.20;99.90;;;;;;5070795;28;20186;-71
2021/12/05 11:57:18;;;;;;;28.45;14.30;;;7.20;99.90;;;;;;5068222;28;20277;-70
2021/12/05 12:00:01;;;;;;;19.90;13.90;;;7.20;99.90;;;;;;5069871;28;20192;-71
2021/12/05 12:02:33;;;;;;;23.60;15.50;;;7.20;99.90;;;;;;5083118;28;20683;-70
2021/12/05 12:05:11;;;;;;;25.05;18.38;;;7.20;99.90;;;;;;5076332;28;20406;-71
2021/12/05 12:07:59;;;;;;;23.77;15.93;;;7.70;99.90;;;;;;5068063;28;20186;-72
2021/12/05 12:10:28;;;;;;;20.95;15.45;;;7.60;99.90;;;;;;5065405;28;20190;-72
2021/12/05 12:12:59;;;;;;;25.20;16.38;;;7.50;99.90;;;;;;5066762;28;20273;-71
2021/12/05 12:15:26;;;;;;;24.42;15.80;;;7.50;99.90;;;;;;5069710;28;20186;-74
2021/12/05 12:17:57;;;;;;;22.63;15.68;;;7.40;99.90;;;;;;5069679;28;20201;-73
2021/12/05 12:20:25;;;;;;;24.20;16.58;;;7.50;99.90;;;;;;5068663;28;20323;-71
2021/12/05 12:22:53;;;;;;;23.65;16.83;;;7.40;99.90;;;;;;5066780;28;20242;-70
2021/12/05 12:25:23;;;;;;;23.90;16.38;;;7.30;99.90;;;;;;5069635;28;20521;-69
2021/12/05 12:27:49;;;;;;;25.00;17.80;;;7.30;99.90;;;;;;5068085;28;20190;-70
2021/12/05 12:30:24;;;;;;;24.20;15.02;;;7.30;99.90;;;;;;5070138;28;20183;-70
2021/12/05 12:32:58;;;;;;;25.17;17.05;;;7.30;99.90;;;;;;5067888;28;20293;-72
2021/12/05 12:35:29;;;;;;;27.25;16.33;;;7.30;99.90;;;;;;5075218;28;20556;-70
2021/12/05 12:38:07;;;;;;;24.05;16.17;;;7.30;99.90;;;;;;5072751;28;20654;-70
2021/12/05 12:40:56;;;;;;;24.90;16.00;;;7.30;99.90;;;;;;5062859;28;20222;-72
2021/12/05 12:43:39;;;;;;;23.77;16.00;;;7.30;99.90;;;;;;5069578;28;20210;-72
2021/12/05 12:46:26;;;;;;;27.33;16.77;;;7.30;99.90;;;;;;5048631;28;20228;-71
2021/12/05 12:48:58;;;;;;;23.73;16.05;;;7.30;99.90;;;;;;5061668;28;20237;-70
2021/12/05 12:51:26;;;;;;;28.02;17.02;;;7.30;99.90;;;;;;5059952;28;20186;-69
2021/12/05 12:54:02;;;;;;;22.45;15.98;;;7.30;99.90;;;;;;5045662;28;20198;-70
2021/12/05 12:56:28;;;;;;;24.30;18.27;;;7.30;99.90;;;;;;5059234;28;20749;-71
2021/12/05 12:59:01;;;;;;;25.08;16.70;;;7.70;99.90;;;;;;5047076;28;20572;-71
2021/12/05 13:10:00;;;;;;;24.20;15.35;;;7.40;99.90;;;;;;5064616;28;20271;-71
2021/12/05 13:10:17;;;;;;;21.95;16.27;;;7.30;99.90;;;;;;5062607;28;20277;-71
2021/12/05 13:12:45;;;;;;;23.33;15.52;;;7.30;99.90;;;;;;5056301;28;20190;-72
2021/12/05 13:15:32;;;;;;;22.08;13.82;;;7.30;99.90;;;;;;5046010;28;20198;-71
2021/12/05 13:18:23;;;;;;;20.15;14.10;;;7.30;99.90;;;;;;5062631;28;20647;-72
2021/12/05 13:21:02;;;;;;;19.85;13.88;;;7.30;99.90;;;;;;5041442;28;20221;-73
2021/12/05 13:23:38;;;;;;;21.90;13.75;;;7.20;99.90;;;;;;5058813;28;20241;-75
2021/12/05 13:26:21;;;;;;;19.77;13.27;;;7.20;99.90;;;;;;5047678;28;20225;-74
2021/12/05 13:28:51;;;;;;;19.80;14.50;;;7.20;99.90;;;;;;5065671;28;20546;-73
2021/12/05 13:31:30;;;;;;;21.33;14.93;;;7.20;99.90;;;;;;5065833;28;20182;-73
2021/12/05 13:34:14;;;;;;;22.58;15.65;;;7.20;99.90;;;;;;5066050;28;20197;-74
2021/12/05 13:36:42;;;;;;;23.33;15.18;;;7.20;99.90;;;;;;5058939;28;20542;-72
2021/12/05 13:39:29;;;;;;;23.08;15.20;;;7.20;99.90;;;;;;5055296;28;20226;-72
2021/12/05 13:42:06;;;;;;;23.85;16.48;;;7.20;99.90;;;;;;5066861;28;20636;-74
2021/12/05 13:44:57;;;;;;;22.27;15.73;;;7.20;99.90;;;;;;5069307;28;20292;-72
2021/12/05 13:47:29;;;;;;;24.65;18.85;;;7.20;99.90;;;;;;5065764;28;21646;-72
2021/12/05 13:49:56;;;;;;;21.88;18.92;;;7.70;99.90;;;;;;5066983;28;20887;-71
2021/12/05 13:52:35;;;;;;;22.15;18.77;;;8.10;99.90;;;;;;5066080;28;20492;-71
2021/12/05 13:55:39;;;;;;;24.50;19.85;;;8.30;99.90;;;;;;5065017;28;20482;-73
2021/12/05 13:58:29;;;;;;;24.90;18.20;;;8.40;99.90;;;;;;5073121;28;20716;-71
2021/12/05 14:00:57;;;;;;;21.77;17.58;;;8.50;99.90;;;;;;5066029;28;20481;-69
2021/12/05 14:03:48;;;;;;;21.57;17.37;;;8.60;99.90;;;;;;5065152;28;20426;-71
2021/12/05 14:06:31;;;;;;;19.07;15.80;;;8.60;99.90;;;;;;5065809;28;20394;-73
2021/12/05 14:09:05;;;;;;;20.77;15.95;;;8.70;99.90;;;;;;5067558;28;20411;-71
2021/12/05 14:11:31;;;;;;;22.73;17.42;;;8.70;99.90;;;;;;5063117;28;23008;-70
2021/12/05 14:14:01;;;;;;;26.75;19.10;;;8.70;99.90;;;;;;5067661;28;20407;-71
2021/12/05 14:16:33;;;;;;;31.88;20.88;;;8.70;99.90;;;;;;5066065;28;20421;-73
2021/12/05 14:18:58;;;;;;;31.33;21.60;;;8.60;99.90;;;;;;5067114;28;20411;-74
2021/12/05 14:21:26;;;;;;;28.60;20.77;;;8.60;99.90;;;;;;5068208;28;20423;-72
2021/12/05 14:23:57;;;;;;;31.50;21.80;;;8.60;99.90;;;;;;5068218;28;20506;-74
2021/12/05 14:26:26;;;;;;;34.42;22.83;;;8.60;99.90;;;;;;5071843;28;20491;-71
2021/12/05 14:29:04;;;;;;;33.00;22.30;;;8.60;99.90;;;;;;5070109;28;20407;-73
2021/12/05 14:32:02;;;;;;;35.85;24.75;;;8.60;99.90;;;;;;5069254;28;20391;-72
2021/12/05 14:34:28;;;;;;;38.83;24.95;;;8.60;99.90;;;;;;5067775;28;20421;-71
2021/12/05 14:36:58;;;;;;;35.03;24.48;;;8.60;99.90;;;;;;5068899;28;20415;-73
2021/12/05 14:39:37;;;;;;;35.58;24.35;;;8.50;99.90;;;;;;5069934;28;20896;-70
2021/12/05 14:42:10;;;;;;;37.33;23.92;;;8.50;99.90;;;;;;5048438;28;20779;-72
2021/12/05 14:44:38;;;;;;;39.30;24.45;;;8.50;99.90;;;;;;5061191;28;20760;-71
2021/12/05 14:47:09;;;;;;;40.63;25.48;;;8.50;99.90;;;;;;5061801;28;20898;-72
2021/12/05 14:49:41;;;;;;;38.53;25.90;;;8.50;99.90;;;;;;5067094;28;20500;-71
2021/12/05 14:52:11;;;;;;;43.63;27.77;;;8.50;99.90;;;;;;5046784;28;20573;-72
2021/12/05 14:54:38;;;;;;;40.70;26.67;;;8.60;99.90;;;;;;5067654;28;20403;-71
2021/12/05 14:57:14;;;;;;;41.45;28.23;;;8.60;99.90;;;;;;5061283;28;20417;-71
2021/12/05 14:59:42;;;;;;;46.28;28.20;;;8.60;99.90;;;;;;5051258;28;20442;-72
2021/12/05 15:02:08;;;;;;;43.63;28.25;;;8.60;99.90;;;;;;5062646;28;20415;-70
2021/12/05 15:04:40;;;;;;;45.95;29.48;;;8.60;99.90;;;;;;5045201;28;20460;-72
2021/12/05 15:07:07;;;;;;;46.25;29.20;;;8.50;99.90;;;;;;5061347;28;20835;-71
2021/12/05 15:09:41;;;;;;;46.35;30.42;;;8.50;99.90;;;;;;5043624;28;20464;-70
2021/12/05 15:12:16;;;;;;;45.60;29.92;;;8.60;99.90;;;;;;5062195;28;20411;-71
2021/12/05 15:14:43;;;;;;;45.03;29.67;;;8.60;99.90;;;;;;5065981;28;20435;-72
2021/12/05 15:17:18;;;;;;;48.55;30.73;;;8.60;99.90;;;;;;5062489;28;20499;-72
2021/12/05 15:19:47;;;;;;;51.00;31.20;;;8.60;99.90;;;;;;5052076;28;20414;-72
2021/12/05 15:22:13;;;;;;;44.35;29.98;;;8.60;99.90;;;;;;5067684;28;20455;-71
2021/12/05 15:24:47;;;;;;;48.88;30.48;;;8.60;99.90;;;;;;5068391;28;20782;-70
2021/12/05 15:27:15;;;;;;;42.05;29.08;;;8.60;99.90;;;;;;5064149;28;20418;-71
2021/12/05 15:29:46;;;;;;;49.13;30.55;;;8.60;99.90;;;;;;5068640;28;20438;-70
2021/12/05 15:32:18;;;;;;;43.92;28.42;;;8.60;99.90;;;;;;5048566;28;20411;-71
2021/12/05 15:34:44;;;;;;;41.25;26.10;;;8.60;99.90;;;;;;5067674;28;20404;-71
2021/12/05 15:37:12;;;;;;;40.55;25.90;;;8.60;99.90;;;;;;5066837;28;20414;-72
2021/12/05 15:39:42;;;;;;;32.08;22.95;;;8.60;99.90;;;;;;5057617;28;20427;-71
2021/12/05 15:42:20;;;;;;;29.67;21.05;;;8.60;99.90;;;;;;5069713;28;20434;-70
2021/12/05 15:44:47;;;;;;;30.58;20.27;;;8.50;99.90;;;;;;5067586;28;20762;-74
2021/12/05 15:47:37;;;;;;;30.45;20.90;;;8.50;99.90;;;;;;5069636;28;20423;-72
2021/12/05 15:50:18;;;;;;;30.00;20.52;;;8.50;99.90;;;;;;5069017;28;20957;-72
2021/12/05 15:52:50;;;;;;;29.33;20.85;;;8.50;99.90;;;;;;5067073;28;20404;-73
2021/12/05 15:55:33;;;;;;;28.35;19.73;;;8.50;99.90;;;;;;5069791;28;20391;-72
2021/12/05 15:58:06;;;;;;;28.05;19.83;;;8.50;99.90;;;;;;5068286;28;20408;-70
2021/12/05 16:00:37;;;;;;;29.23;20.17;;;8.50;99.90;;;;;;5069632;28;20399;-71
2021/12/05 16:03:11;;;;;;;28.52;20.08;;;8.50;99.90;;;;;;5067965;28;20458;-72
2021/12/05 16:05:40;;;;;;;28.25;18.90;;;8.50;99.90;;;;;;5066443;28;20403;-71
2021/12/05 16:08:10;;;;;;;31.80;21.02;;;8.50;99.90;;;;;;5068920;28;20395;-72
2021/12/05 16:10:39;;;;;;;30.15;20.85;;;8.50;99.90;;;;;;5069297;28;20476;-72
2021/12/05 16:13:13;;;;;;;33.07;22.27;;;8.50;99.90;;;;;;5065974;28;20406;-73
2021/12/05 16:15:41;;;;;;;35.05;23.23;;;8.50;99.90;;;;;;5068196;28;20419;-71
2021/12/05 16:18:07;;;;;;;33.07;23.10;;;8.50;99.90;;;;;;5070696;28;20427;-72
2021/12/05 16:20:44;;;;;;;35.97;23.05;;;8.50;99.90;;;;;;5065991;28;20416;-73
2021/12/05 16:23:23;;;;;;;35.63;23.73;;;8.50;99.90;;;;;;5066323;28;20796;-73
2021/12/05 16:26:09;;;;;;;38.95;23.50;;;8.50;99.90;;;;;;5065267;28;20406;-73
2021/12/05 16:28:40;;;;;;;38.93;23.90;;;8.50;99.90;;;;;;5071307;28;20407;-73
2021/12/05 16:31:15;;;;;;;42.43;25.73;;;8.50;99.90;;;;;;5080933;28;20397;-70
2021/12/05 16:33:44;;;;;;;39.42;25.58;;;8.50;99.90;;;;;;5066469;28;20963;-72
2021/12/05 16:36:10;;;;;;;40.42;25.08;;;8.50;99.90;;;;;;5067597;28;20971;-71
2021/12/05 16:38:39;;;;;;;42.57;26.23;;;8.50;99.90;;;;;;5068058;28;20478;-71
2021/12/05 16:41:29;;;;;;;41.50;25.83;;;8.50;99.90;;;;;;5066295;28;20520;-71
2021/12/05 16:44:03;;;;;;;43.33;26.42;;;8.50;99.90;;;;;;5061363;28;20435;-72
2021/12/05 16:46:50;;;;;;;41.53;24.20;;;8.50;99.90;;;;;;5071669;28;20911;-71
2021/12/05 16:49:30;;;;;;;42.20;25.60;;;8.60;99.90;;;;;;5068981;28;20423;-72
2021/12/05 16:52:06;;;;;;;38.47;24.10;;;8.50;99.90;;;;;;5074451;28;20414;-72
2021/12/05 16:54:42;;;;;;;36.85;23.77;;;8.50;99.90;;;;;;5080243;28;20871;-72
2021/12/05 16:57:13;;;;;;;32.95;22.58;;;8.50;99.90;;;;;;5068505;28;20443;-72
2021/12/05 16:59:39;;;;;;;33.83;22.67;;;8.50;99.90;;;;;;5065982;28;20773;-71
2021/12/05 17:02:18;;;;;;;32.37;22.87;;;8.50;99.90;;;;;;5070999;28;20420;-71
2021/12/05 17:04:58;;;;;;;35.78;22.95;;;8.40;99.90;;;;;;5071335;28;20395;-73
2021/12/05 17:07:37;;;;;;;33.20;21.88;;;8.40;99.90;;;;;;5066315;28;20380;-72
2021/12/05 17:10:31;;;;;;;36.30;23.15;;;8.40;99.90;;;;;;5066840;28;20423;-73
2021/12/05 17:13:13;;;;;;;35.15;23.90;;;8.40;99.90;;;;;;5056155;28;20817;-71
2021/12/05 17:15:50;;;;;;;33.85;22.38;;;8.40;99.90;;;;;;5062448;28;20411;-71
2021/12/05 17:18:23;;;;;;;33.30;23.55;;;8.40;99.90;;;;;;5067589;28;20411;-71
2021/12/05 17:20:59;;;;;;;32.20;23.00;;;8.40;99.90;;;;;;5065800;28;20892;-73
2021/12/05 17:23:40;;;;;;;33.27;22.60;;;8.40;99.90;;;;;;5066280;28;20426;-71
2021/12/05 17:26:11;;;;;;;31.17;22.20;;;8.40;99.90;;;;;;5066551;28;20414;-71
2021/12/05 17:29:09;;;;;;;32.63;22.95;;;8.30;99.90;;;;;;5066643;28;20888;-72
2021/12/05 17:31:38;;;;;;;31.77;22.92;;;8.30;99.90;;;;;;5053398;28;20411;-71
2021/12/05 17:34:19;;;;;;;33.58;22.88;;;8.30;99.90;;;;;;5065416;28;20439;-72
2021/12/05 17:36:54;;;;;;;31.50;22.73;;;8.30;99.90;;;;;;5066725;28;20396;-72
2021/12/05 17:39:26;;;;;;;30.23;21.97;;;8.30;99.90;;;;;;5065759;28;20422;-74
2021/12/05 17:41:56;;;;;;;29.45;21.27;;;8.30;99.90;;;;;;5041629;28;20411;-73
2021/12/05 17:44:22;;;;;;;31.17;22.55;;;8.30;99.90;;;;;;5065616;28;20759;-72
2021/12/05 17:46:52;;;;;;;30.07;22.00;;;8.30;99.90;;;;;;5064456;28;20405;-71
2021/12/05 17:49:20;;;;;;;31.90;22.87;;;8.30;99.90;;;;;;5061302;28;20426;-71
2021/12/05 17:51:46;;;;;;;29.02;22.02;;;8.30;99.90;;;;;;5065388;28;20399;-72
2021/12/05 17:54:22;;;;;;;32.47;23.70;;;8.30;99.90;;;;;;5067110;28;20399;-71
2021/12/05 17:56:53;;;;;;;30.27;19.67;;;8.30;99.90;;;;;;5063495;28;20192;-71
2021/12/05 17:59:46;;;;;;;32.33;19.63;;;7.90;99.90;;;;;;5063374;28;20190;-70
2021/12/05 18:04:59;;;;;;;29.52;18.98;;;7.40;99.90;;;;;;5063247;28;20186;-72
2021/12/05 18:07:24;;;;;;;32.92;22.15;;;7.20;99.90;;;;;;5025789;28;20741;-72
2021/12/05 18:09:50;;;;;;;30.83;19.80;;;7.50;99.90;;;;;;5063958;28;20209;-72
2021/12/05 18:12:22;;;;;;;29.17;18.73;;;7.40;99.90;;;;;;5064212;28;20195;-72
2021/12/05 18:14:52;;;;;;;32.90;19.48;;;7.20;99.90;;;;;;5063017;28;20252;-72
2021/12/05 18:17:18;;;;;;;32.72;19.58;;;7.10;99.90;;;;;;5045895;28;20186;-70
2021/12/05 18:19:47;;;;;;;30.15;19.17;;;7.00;99.90;;;;;;5043525;28;20570;-71
2021/12/05 18:22:13;;;;;;;30.92;18.52;;;7.00;99.90;;;;;;5053899;28;20706;-74
2021/12/05 18:24:40;;;;;;;29.38;18.20;;;6.90;99.90;;;;;;5064188;28;20187;-72
2021/12/05 18:27:06;;;;;;;30.05;18.48;;;6.90;99.90;;;;;;5048915;28;20858;-71
2021/12/05 18:29:32;;;;;;;30.05;18.10;;;6.80;99.90;;;;;;5064577;28;20171;-71